Time;durP1;ratioP1;P1;durP2;ratioP2;P2;SDS_P1;SDS_P2;PMS_P1;PMS_P2;Temp;Humidity;BMP_temperature;BMP_pressure;BME280_temperature;BME280_humidity;BME280_pressure;Samples;Min_cycle;Max_cycle;Signal;HPM_P1;HPM_P2
2020/12/08 00:01:51;;;;;;;8.70;6.53;;;6.40;86.60;;;;;;5032666;28;20088;-79
2020/12/08 00:04:17;;;;;;;8.75;6.18;;;6.30;86.60;;;;;;5049271;28;20387;-78
2020/12/08 00:06:43;;;;;;;10.10;6.68;;;6.30;86.60;;;;;;5034080;28;20040;-80
2020/12/08 00:09:08;;;;;;;9.40;7.10;;;6.40;86.80;;;;;;5048599;28;20088;-78
2020/12/08 00:11:34;;;;;;;9.05;6.28;;;6.30;86.50;;;;;;5032311;28;20027;-79
2020/12/08 00:14:00;;;;;;;9.38;6.70;;;6.30;86.60;;;;;;5048362;28;20029;-79
2020/12/08 00:16:26;;;;;;;7.50;5.75;;;6.30;86.30;;;;;;5050801;28;20037;-79
2020/12/08 00:18:51;;;;;;;8.20;6.05;;;6.30;86.60;;;;;;5047559;28;20369;-78
2020/12/08 00:21:17;;;;;;;8.43;6.13;;;6.30;86.40;;;;;;5069537;28;20044;-79
2020/12/08 00:23:43;;;;;;;7.07;5.68;;;6.30;86.40;;;;;;5050431;28;20998;-80
2020/12/08 00:26:09;;;;;;;8.52;6.25;;;6.30;86.50;;;;;;5048062;28;20025;-78
2020/12/08 00:28:35;;;;;;;8.25;5.57;;;6.30;86.50;;;;;;5032292;28;20029;-79
2020/12/08 00:31:00;;;;;;;8.30;5.65;;;6.40;86.00;;;;;;5054292;28;20051;-79
2020/12/08 00:33:26;;;;;;;8.40;5.95;;;6.40;86.00;;;;;;5059298;28;20028;-79
2020/12/08 00:35:53;;;;;;;8.15;6.15;;;6.40;86.20;;;;;;5030779;28;20029;-79
2020/12/08 00:38:19;;;;;;;8.50;6.00;;;6.40;86.30;;;;;;5048842;28;20025;-79
2020/12/08 00:40:45;;;;;;;7.35;5.53;;;6.30;86.30;;;;;;5067680;28;20028;-79
2020/12/08 00:43:10;;;;;;;7.63;5.20;;;6.30;86.10;;;;;;5055974;28;20397;-79
2020/12/08 00:45:36;;;;;;;7.70;5.18;;;6.30;86.10;;;;;;5049992;28;20040;-79
2020/12/08 00:48:02;;;;;;;7.35;5.47;;;6.30;86.20;;;;;;5031554;28;20043;-78
2020/12/08 00:50:27;;;;;;;9.98;5.38;;;6.30;86.20;;;;;;5033435;28;20029;-79
2020/12/08 00:52:53;;;;;;;7.05;5.70;;;6.40;86.00;;;;;;5032206;28;20370;-79
2020/12/08 00:55:18;;;;;;;7.50;5.40;;;6.30;86.00;;;;;;5032645;28;20122;-79
2020/12/08 00:57:44;;;;;;;7.57;5.82;;;6.30;86.10;;;;;;5032569;28;20032;-78
2020/12/08 01:00:10;;;;;;;5.85;4.80;;;6.30;86.10;;;;;;5033581;28;20029;-78
2020/12/08 01:02:35;;;;;;;7.43;5.57;;;6.30;86.10;;;;;;5032010;28;20063;-79
2020/12/08 01:05:01;;;;;;;8.75;6.05;;;6.30;86.10;;;;;;5047718;28;20508;-79
2020/12/08 01:07:27;;;;;;;8.55;5.90;;;6.30;86.10;;;;;;5066476;28;20025;-79
2020/12/08 01:09:53;;;;;;;7.25;5.80;;;6.40;86.10;;;;;;5031448;28;20021;-79
2020/12/08 01:12:18;;;;;;;8.20;6.03;;;6.30;86.10;;;;;;5047710;28;20041;-79
2020/12/08 01:14:44;;;;;;;9.05;6.38;;;6.30;85.70;;;;;;5033895;28;20025;-79
2020/12/08 01:17:10;;;;;;;8.52;6.43;;;6.30;85.70;;;;;;5031547;28;20029;-79
2020/12/08 01:19:35;;;;;;;8.55;6.07;;;6.30;85.80;;;;;;5047016;28;20041;-79
2020/12/08 01:22:01;;;;;;;6.80;5.55;;;6.30;85.70;;;;;;5049732;28;20484;-79
2020/12/08 01:24:27;;;;;;;7.78;6.00;;;6.30;85.60;;;;;;5047362;28;20520;-78
2020/12/08 01:26:57;;;;;;;8.60;5.70;;;6.30;85.80;;;;;;5063878;28;20143;-79
2020/12/08 01:29:22;;;;;;;7.35;5.57;;;6.30;85.90;;;;;;5030885;28;20427;-79
2020/12/08 01:31:48;;;;;;;8.43;5.78;;;6.30;85.80;;;;;;5032882;28;20089;-79
2020/12/08 01:34:13;;;;;;;9.00;5.90;;;6.30;85.70;;;;;;5050721;28;20077;-79
2020/12/08 01:36:39;;;;;;;9.82;6.32;;;6.30;85.60;;;;;;5034803;28;20448;-79
2020/12/08 01:39:05;;;;;;;8.32;6.25;;;6.40;85.70;;;;;;5032573;28;20036;-78
2020/12/08 01:41:31;;;;;;;11.00;6.32;;;6.30;85.30;;;;;;5033052;28;20028;-79
2020/12/08 01:43:56;;;;;;;9.55;6.40;;;6.40;85.20;;;;;;5032972;28;20075;-79
2020/12/08 01:46:24;;;;;;;10.02;6.93;;;6.30;85.00;;;;;;5048477;28;20052;-79
2020/12/08 01:48:51;;;;;;;9.82;7.03;;;6.30;85.10;;;;;;5041198;28;20111;-79
2020/12/08 01:51:22;;;;;;;9.27;6.85;;;6.30;85.20;;;;;;5048915;28;20492;-79
2020/12/08 01:53:49;;;;;;;8.70;6.45;;;6.30;85.30;;;;;;5029005;28;20158;-79
2020/12/08 01:56:15;;;;;;;9.55;6.65;;;6.30;85.30;;;;;;5063644;28;20037;-79
2020/12/08 01:58:41;;;;;;;10.02;6.90;;;6.30;85.40;;;;;;5052103;28;20060;-79
2020/12/08 02:01:11;;;;;;;8.55;6.68;;;6.30;85.20;;;;;;5051624;28;20114;-79
2020/12/08 02:03:38;;;;;;;10.73;7.35;;;6.30;85.20;;;;;;5048735;28;20091;-78
2020/12/08 02:06:04;;;;;;;8.38;6.07;;;6.30;85.30;;;;;;5032333;28;20384;-80
2020/12/08 02:08:31;;;;;;;9.23;6.65;;;6.30;85.20;;;;;;5045745;28;20055;-79
2020/12/08 02:10:56;;;;;;;8.73;6.90;;;6.30;85.20;;;;;;5060169;28;20083;-78
2020/12/08 02:13:23;;;;;;;10.68;6.90;;;6.30;84.70;;;;;;5028631;28;20024;-78
2020/12/08 02:15:49;;;;;;;9.80;6.80;;;6.30;84.70;;;;;;5045605;28;20032;-78
2020/12/08 02:18:15;;;;;;;10.55;6.95;;;6.30;84.80;;;;;;5029922;28;20036;-78
2020/12/08 02:20:42;;;;;;;10.07;6.65;;;6.30;84.80;;;;;;5054157;28;20078;-78
2020/12/08 02:23:08;;;;;;;9.93;6.53;;;6.30;84.60;;;;;;5033716;28;20029;-78
2020/12/08 02:25:34;;;;;;;7.78;5.93;;;6.30;84.30;;;;;;5030861;28;20025;-78
2020/12/08 02:28:00;;;;;;;9.32;6.57;;;6.30;84.30;;;;;;5027599;28;20017;-78
2020/12/08 02:30:26;;;;;;;9.35;6.18;;;6.30;84.30;;;;;;5029756;28;20174;-78
2020/12/08 02:32:52;;;;;;;8.63;5.95;;;6.30;83.40;;;;;;5030963;28;20485;-78
2020/12/08 02:35:18;;;;;;;8.35;6.30;;;6.30;83.90;;;;;;5045561;28;20033;-78
2020/12/08 02:37:43;;;;;;;7.88;6.30;;;6.30;83.90;;;;;;5045246;28;20043;-78
2020/12/08 02:40:09;;;;;;;6.72;5.50;;;6.30;84.00;;;;;;5026022;28;20124;-78
2020/12/08 02:42:34;;;;;;;8.20;6.40;;;6.30;83.90;;;;;;5026955;28;20033;-78
2020/12/08 02:45:00;;;;;;;7.78;6.22;;;6.30;83.90;;;;;;5047334;28;20032;-78
2020/12/08 02:47:26;;;;;;;8.48;6.28;;;6.30;83.70;;;;;;5065869;28;20025;-78
2020/12/08 02:49:54;;;;;;;6.97;5.63;;;6.30;83.70;;;;;;5042279;28;20028;-79
2020/12/08 02:52:23;;;;;;;7.53;5.45;;;6.30;83.90;;;;;;5042656;28;20055;-78
2020/12/08 02:54:49;;;;;;;6.63;5.43;;;6.30;83.90;;;;;;5029062;28;20025;-77
2020/12/08 02:57:15;;;;;;;9.93;6.93;;;6.30;83.90;;;;;;5045018;28;20028;-78
2020/12/08 02:59:41;;;;;;;7.60;5.97;;;6.30;84.00;;;;;;5028886;28;20029;-79
2020/12/08 03:02:07;;;;;;;6.97;5.70;;;6.30;83.50;;;;;;5046462;28;20059;-78
2020/12/08 03:04:32;;;;;;;6.85;5.38;;;6.30;83.60;;;;;;5031015;28;20111;-78
2020/12/08 03:06:58;;;;;;;7.25;5.82;;;6.30;83.80;;;;;;5028891;28;20083;-78
2020/12/08 03:09:24;;;;;;;7.45;5.82;;;6.30;83.70;;;;;;5050291;28;20021;-78
2020/12/08 03:11:49;;;;;;;8.32;6.07;;;6.30;83.70;;;;;;5048057;28;20663;-78
2020/12/08 03:14:15;;;;;;;7.10;5.90;;;6.30;83.60;;;;;;5062042;28;20033;-77
2020/12/08 03:16:41;;;;;;;7.40;5.88;;;6.30;83.60;;;;;;5026819;28;20377;-78
2020/12/08 03:19:07;;;;;;;9.27;5.80;;;6.30;83.80;;;;;;5028343;28;20492;-78
2020/12/08 03:21:34;;;;;;;6.68;5.78;;;6.30;83.80;;;;;;5031222;28;20051;-78
2020/12/08 03:24:00;;;;;;;7.50;5.75;;;6.30;84.20;;;;;;5031321;28;20114;-77
2020/12/08 03:26:26;;;;;;;7.13;5.75;;;6.30;83.70;;;;;;5033713;28;20518;-78
2020/12/08 03:28:52;;;;;;;7.40;5.63;;;6.30;83.80;;;;;;5034196;28;20108;-78
2020/12/08 03:31:18;;;;;;;8.00;5.78;;;6.30;83.50;;;;;;5052840;28;20399;-78
2020/12/08 03:33:44;;;;;;;6.82;5.60;;;6.30;83.80;;;;;;5049543;28;20032;-78
2020/12/08 03:36:15;;;;;;;7.97;5.97;;;6.30;83.90;;;;;;5029251;28;20036;-78
2020/12/08 03:38:45;;;;;;;8.45;6.13;;;6.30;84.40;;;;;;5032402;28;20479;-78
2020/12/08 03:41:10;;;;;;;9.45;6.47;;;6.30;83.90;;;;;;5032912;28;20115;-78
2020/12/08 03:43:36;;;;;;;7.55;5.80;;;6.30;83.80;;;;;;5053375;28;20056;-78
2020/12/08 03:46:02;;;;;;;6.43;5.22;;;6.30;83.90;;;;;;5035804;28;20029;-78
2020/12/08 03:48:27;;;;;;;7.28;6.07;;;6.30;83.90;;;;;;5046964;28;20036;-78
2020/12/08 03:50:53;;;;;;;8.23;5.53;;;6.30;83.90;;;;;;5028766;28;20059;-78
2020/12/08 03:53:19;;;;;;;7.70;6.07;;;6.30;84.00;;;;;;5029579;28;20452;-78
2020/12/08 03:55:45;;;;;;;9.80;6.15;;;6.20;84.10;;;;;;5043515;28;20040;-77
2020/12/08 03:58:10;;;;;;;8.20;6.00;;;6.20;84.50;;;;;;5031191;28;20025;-78
2020/12/08 04:00:36;;;;;;;9.70;6.60;;;6.20;84.10;;;;;;5049732;28;20036;-78
2020/12/08 04:03:02;;;;;;;8.27;6.65;;;6.30;84.00;;;;;;5052873;28;20396;-78
2020/12/08 04:05:28;;;;;;;7.72;6.45;;;6.30;84.00;;;;;;5050479;28;20095;-78
2020/12/08 04:07:54;;;;;;;8.95;6.68;;;6.20;83.90;;;;;;5068434;28;20032;-78
2020/12/08 04:10:20;;;;;;;7.47;5.75;;;6.30;84.00;;;;;;5047374;28;20461;-79
2020/12/08 04:12:46;;;;;;;9.88;6.70;;;6.30;84.10;;;;;;5031258;28;20345;-77
2020/12/08 04:15:11;;;;;;;8.77;6.60;;;6.30;83.90;;;;;;5030802;28;20020;-78
2020/12/08 04:17:37;;;;;;;8.43;6.75;;;6.20;83.80;;;;;;5033225;28;20024;-78
2020/12/08 04:20:03;;;;;;;9.35;6.72;;;6.20;84.00;;;;;;5048156;28;20020;-78
2020/12/08 04:22:29;;;;;;;10.45;7.43;;;6.30;84.10;;;;;;5031045;28;20028;-77
2020/12/08 04:24:55;;;;;;;9.00;6.50;;;6.30;83.90;;;;;;5046819;28;20013;-78
2020/12/08 04:27:21;;;;;;;7.20;6.03;;;6.30;83.90;;;;;;5044953;28;20028;-78
2020/12/08 04:29:46;;;;;;;8.65;6.50;;;6.30;83.80;;;;;;5029871;28;20025;-78
2020/12/08 04:32:12;;;;;;;10.27;6.95;;;6.30;84.10;;;;;;5032046;28;20420;-78
2020/12/08 04:34:38;;;;;;;8.75;6.90;;;6.20;84.00;;;;;;5045326;28;20074;-78
2020/12/08 04:37:03;;;;;;;8.57;6.07;;;6.20;84.00;;;;;;5028965;28;20024;-78
2020/12/08 04:39:29;;;;;;;8.18;6.38;;;6.20;84.10;;;;;;5045730;28;20028;-78
2020/12/08 04:41:56;;;;;;;9.75;6.57;;;6.20;84.10;;;;;;5029191;28;20078;-78
2020/12/08 04:44:21;;;;;;;9.20;6.70;;;6.20;84.10;;;;;;5047546;28;20476;-78
2020/12/08 04:46:55;;;;;;;11.25;7.13;;;6.30;84.10;;;;;;5048557;28;20032;-77
2020/12/08 04:49:25;;;;;;;9.93;6.75;;;6.30;84.10;;;;;;5043058;28;20037;-78
2020/12/08 04:51:51;;;;;;;8.57;6.53;;;6.20;84.20;;;;;;5042677;28;20115;-78
2020/12/08 04:54:17;;;;;;;9.02;6.55;;;6.20;84.10;;;;;;5032002;28;20437;-78
2020/12/08 04:56:44;;;;;;;10.43;6.45;;;6.30;84.30;;;;;;5063166;28;20044;-78
2020/12/08 04:59:21;;;;;;;9.93;6.95;;;6.20;84.30;;;;;;5046321;28;20112;-78
2020/12/08 05:01:47;;;;;;;12.27;7.65;;;6.30;84.20;;;;;;5023908;28;20110;-78
2020/12/08 05:04:21;;;;;;;9.02;6.78;;;6.20;84.30;;;;;;5062299;28;20116;-77
2020/12/08 05:06:47;;;;;;;9.85;6.38;;;6.30;84.40;;;;;;5045198;28;20060;-78
2020/12/08 05:09:12;;;;;;;9.35;6.68;;;6.20;84.30;;;;;;5053250;28;20047;-78
2020/12/08 05:11:39;;;;;;;10.27;6.75;;;6.20;84.40;;;;;;5030066;28;20060;-78
2020/12/08 05:14:06;;;;;;;10.23;6.90;;;6.30;84.50;;;;;;5046318;28;20024;-78
2020/12/08 05:16:32;;;;;;;9.65;6.97;;;6.30;84.50;;;;;;5045051;28;20036;-78
2020/12/08 05:19:24;;;;;;;9.10;7.15;;;6.30;84.60;;;;;;5042859;28;20039;-78
2020/12/08 05:21:50;;;;;;;11.98;8.43;;;6.20;84.70;;;;;;5009746;28;20184;-78
2020/12/08 05:24:28;;;;;;;11.38;7.43;;;6.20;84.50;;;;;;5061987;28;20047;-78
2020/12/08 05:27:02;;;;;;;11.55;8.00;;;6.20;84.70;;;;;;5038769;28;20349;-78
2020/12/08 05:29:29;;;;;;;12.45;8.38;;;6.20;84.70;;;;;;5029549;28;20052;-79
2020/12/08 05:31:56;;;;;;;11.52;8.50;;;6.20;84.70;;;;;;5044517;28;20033;-78
2020/12/08 05:34:23;;;;;;;12.73;9.18;;;6.20;84.70;;;;;;5044488;28;20067;-78
2020/12/08 05:36:51;;;;;;;11.60;8.32;;;6.20;84.80;;;;;;5025455;28;20305;-78
2020/12/08 05:39:22;;;;;;;12.75;8.45;;;6.20;84.90;;;;;;5061407;28;20074;-77
2020/12/08 05:41:51;;;;;;;11.20;8.43;;;6.20;84.90;;;;;;5029031;28;20137;-79
2020/12/08 05:44:23;;;;;;;11.75;8.18;;;6.20;85.10;;;;;;5027871;28;20028;-78
2020/12/08 05:46:51;;;;;;;12.98;9.07;;;6.20;85.10;;;;;;5076144;28;21414;-78
2020/12/08 05:49:17;;;;;;;14.35;9.80;;;6.20;85.20;;;;;;5067837;28;20032;-78
2020/12/08 05:51:45;;;;;;;12.57;8.63;;;6.20;85.00;;;;;;5033506;28;20035;-79
2020/12/08 05:54:21;;;;;;;13.68;8.90;;;6.20;85.00;;;;;;5058494;28;20021;-79
2020/12/08 05:56:48;;;;;;;12.32;9.27;;;6.20;85.10;;;;;;5054937;28;20515;-80
2020/12/08 05:59:29;;;;;;;14.73;9.30;;;6.20;85.10;;;;;;5038485;28;20036;-80
2020/12/08 06:01:55;;;;;;;14.38;9.48;;;6.20;85.10;;;;;;5050019;28;20119;-79
2020/12/08 06:04:21;;;;;;;12.77;9.00;;;6.20;85.00;;;;;;5033631;28;20443;-78
2020/12/08 06:06:52;;;;;;;15.80;9.35;;;6.20;84.90;;;;;;5032902;28;20032;-79
2020/12/08 06:09:22;;;;;;;14.48;9.80;;;6.20;85.00;;;;;;5029220;28;20028;-80
2020/12/08 06:11:48;;;;;;;14.10;9.07;;;6.20;85.40;;;;;;5065003;28;20435;-79
2020/12/08 06:14:14;;;;;;;14.18;9.60;;;6.20;85.00;;;;;;5067510;28;20029;-78
2020/12/08 06:16:39;;;;;;;13.32;9.52;;;6.20;84.90;;;;;;5034571;28;23317;-78
2020/12/08 06:19:05;;;;;;;12.32;9.68;;;6.20;84.90;;;;;;5048482;28;20036;-78
2020/12/08 06:21:35;;;;;;;14.68;9.65;;;6.20;84.70;;;;;;5047316;28;20028;-80
2020/12/08 06:24:02;;;;;;;15.25;11.25;;;6.20;84.90;;;;;;5067449;28;20875;-78
2020/12/08 06:26:29;;;;;;;15.70;10.35;;;6.10;84.90;;;;;;5034017;28;20067;-77
2020/12/08 06:28:56;;;;;;;16.27;10.95;;;6.10;84.50;;;;;;5067259;28;20469;-78
2020/12/08 06:31:22;;;;;;;16.65;11.07;;;6.10;84.70;;;;;;5029510;28;20024;-78
2020/12/08 06:33:50;;;;;;;17.05;11.38;;;6.10;84.90;;;;;;5036388;28;20022;-78
2020/12/08 06:36:17;;;;;;;15.85;10.80;;;6.00;84.80;;;;;;5069010;28;20036;-79
2020/12/08 06:38:58;;;;;;;18.17;10.60;;;6.00;84.90;;;;;;5038447;28;20028;-80
2020/12/08 06:41:34;;;;;;;16.70;10.88;;;6.00;84.90;;;;;;5070388;28;20028;-78
2020/12/08 06:44:04;;;;;;;15.85;10.95;;;6.00;85.00;;;;;;5041610;28;20033;-78
2020/12/08 06:46:29;;;;;;;17.98;11.38;;;6.00;85.00;;;;;;5045909;28;20024;-80
2020/12/08 06:49:07;;;;;;;16.40;10.80;;;6.10;85.00;;;;;;5032007;28;20035;-78
2020/12/08 06:51:33;;;;;;;17.55;11.07;;;6.00;85.00;;;;;;5036069;28;20020;-78
2020/12/08 06:54:10;;;;;;;18.70;10.93;;;6.00;85.10;;;;;;5032415;28;20028;-79
2020/12/08 06:56:36;;;;;;;15.05;8.65;;;6.00;85.10;;;;;;5047638;28;20036;-79
2020/12/08 06:59:02;;;;;;;15.70;10.18;;;6.20;90.40;;;;;;5031151;28;20035;-78
2020/12/08 07:01:27;;;;;;;16.25;9.60;;;6.50;87.40;;;;;;5034556;28;20052;-79
2020/12/08 07:03:54;;;;;;;15.52;10.43;;;6.60;85.40;;;;;;5048547;28;20063;-79
2020/12/08 07:06:20;;;;;;;17.15;11.10;;;6.60;84.60;;;;;;5044943;28;20032;-78
2020/12/08 07:08:50;;;;;;;17.40;11.10;;;6.60;83.90;;;;;;5041741;28;20074;-78
2020/12/08 07:11:23;;;;;;;16.33;10.82;;;6.50;83.90;;;;;;5055813;28;20032;-79
2020/12/08 07:14:04;;;;;;;15.75;10.40;;;6.50;83.70;;;;;;5038917;28;20383;-80
2020/12/08 07:16:30;;;;;;;16.92;10.20;;;6.40;83.40;;;;;;5058820;28;20032;-80
2020/12/08 07:18:57;;;;;;;16.73;10.48;;;6.30;83.80;;;;;;5053897;28;20446;-79
2020/12/08 07:21:24;;;;;;;16.05;10.82;;;6.20;83.90;;;;;;5040049;28;20031;-79
2020/12/08 07:23:54;;;;;;;16.88;11.10;;;6.20;84.20;;;;;;5053679;28;20059;-80
2020/12/08 07:26:34;;;;;;;14.43;9.43;;;6.20;83.60;;;;;;5053274;28;20060;-79
2020/12/08 07:29:00;;;;;;;14.25;10.27;;;6.20;85.10;;;;;;5052174;28;20029;-79
2020/12/08 07:31:30;;;;;;;16.65;11.30;;;6.30;85.60;;;;;;5033586;28;20028;-78
2020/12/08 07:34:00;;;;;;;16.92;10.38;;;6.30;84.00;;;;;;5049399;28;20158;-78
2020/12/08 07:36:31;;;;;;;15.82;10.77;;;6.30;83.80;;;;;;5054541;28;20032;-78
2020/12/08 07:38:59;;;;;;;16.58;9.82;;;6.30;84.00;;;;;;5032149;28;20075;-78
2020/12/08 07:41:27;;;;;;;15.85;10.10;;;6.20;83.70;;;;;;5030207;28;20079;-77
2020/12/08 07:43:54;;;;;;;16.23;9.95;;;6.20;83.90;;;;;;5050054;28;20039;-77
2020/12/08 07:46:30;;;;;;;15.80;10.18;;;6.20;83.90;;;;;;5039511;28;20116;-77
2020/12/08 07:49:06;;;;;;;13.02;9.05;;;6.20;83.70;;;;;;5057414;28;20029;-78
2020/12/08 07:51:33;;;;;;;13.68;9.63;;;6.20;83.80;;;;;;5050840;28;20056;-79
2020/12/08 07:54:02;;;;;;;13.60;9.45;;;6.20;83.50;;;;;;5055864;28;20498;-79
2020/12/08 07:56:29;;;;;;;15.02;9.77;;;6.20;83.50;;;;;;5052211;28;20064;-78
2020/12/08 07:58:56;;;;;;;13.40;9.75;;;6.20;83.30;;;;;;5055921;28;20024;-79
2020/12/08 08:01:22;;;;;;;15.52;9.32;;;6.20;83.40;;;;;;5040440;28;20027;-78
2020/12/08 08:03:47;;;;;;;14.23;9.68;;;6.20;83.10;;;;;;5055842;28;20108;-78
2020/12/08 08:06:19;;;;;;;13.60;9.60;;;6.20;83.30;;;;;;5054957;28;20127;-78
2020/12/08 08:08:46;;;;;;;14.68;9.45;;;6.20;83.50;;;;;;5057626;28;20039;-78
2020/12/08 08:11:12;;;;;;;14.60;10.23;;;6.20;83.40;;;;;;5037850;28;20103;-78
2020/12/08 08:13:40;;;;;;;14.57;9.68;;;6.20;83.40;;;;;;5054871;28;20075;-78
2020/12/08 08:16:13;;;;;;;15.18;10.50;;;6.20;83.50;;;;;;5035779;28;20034;-78
2020/12/08 08:18:39;;;;;;;14.80;9.95;;;6.30;84.70;;;;;;5050111;28;20428;-78
2020/12/08 08:21:06;;;;;;;13.00;8.93;;;6.30;83.20;;;;;;5054257;28;20078;-79
2020/12/08 08:23:32;;;;;;;12.75;8.68;;;6.40;82.90;;;;;;5043269;28;20029;-78
2020/12/08 08:25:58;;;;;;;13.63;8.82;;;6.30;83.10;;;;;;5069999;28;20028;-79
2020/12/08 08:28:25;;;;;;;17.92;9.93;;;6.30;83.20;;;;;;5039321;28;20036;-79
2020/12/08 08:30:51;;;;;;;17.45;10.07;;;6.30;83.00;;;;;;5036575;28;20056;-78
2020/12/08 08:33:16;;;;;;;12.32;9.35;;;6.30;82.80;;;;;;5051781;28;20471;-78
2020/12/08 08:35:43;;;;;;;13.93;9.30;;;6.30;83.00;;;;;;5040136;28;20115;-78
2020/12/08 08:38:08;;;;;;;12.55;8.68;;;6.20;83.30;;;;;;5039305;28;20029;-78
2020/12/08 08:40:34;;;;;;;14.25;10.05;;;6.20;83.30;;;;;;5050231;28;20147;-78
2020/12/08 08:43:00;;;;;;;15.18;9.40;;;6.30;83.40;;;;;;5052374;28;20024;-78
2020/12/08 08:45:26;;;;;;;14.18;10.55;;;6.30;83.20;;;;;;5051509;28;20488;-78
2020/12/08 08:47:51;;;;;;;13.95;9.50;;;6.30;83.20;;;;;;5037302;28;20051;-78
2020/12/08 08:50:17;;;;;;;12.70;9.13;;;6.30;82.80;;;;;;5039020;28;20107;-79
2020/12/08 08:52:43;;;;;;;13.32;9.88;;;6.30;82.70;;;;;;5038070;28;20111;-78
2020/12/08 08:55:10;;;;;;;12.93;9.35;;;6.30;82.90;;;;;;5070213;28;20021;-78
2020/12/08 08:57:39;;;;;;;14.93;8.77;;;6.30;82.50;;;;;;5055010;28;20032;-78
2020/12/08 09:00:07;;;;;;;14.88;9.98;;;6.30;82.30;;;;;;5055462;28;20024;-78
2020/12/08 09:02:36;;;;;;;13.77;9.63;;;6.30;82.20;;;;;;5049098;28;20079;-79
2020/12/08 09:05:03;;;;;;;13.18;8.60;;;6.30;82.60;;;;;;5054506;28;20040;-78
2020/12/08 09:07:29;;;;;;;16.15;10.00;;;6.30;82.90;;;;;;5034534;28;20021;-78
2020/12/08 09:09:58;;;;;;;17.35;10.23;;;6.30;82.90;;;;;;5057800;28;20029;-78
2020/12/08 09:12:24;;;;;;;15.95;9.80;;;6.30;82.80;;;;;;5035246;28;20028;-79
2020/12/08 09:14:53;;;;;;;12.88;9.20;;;6.30;82.60;;;;;;5052601;28;20086;-78
2020/12/08 09:17:19;;;;;;;11.38;9.02;;;6.30;82.80;;;;;;5051843;28;20152;-78
2020/12/08 09:19:45;;;;;;;13.38;10.00;;;6.30;82.80;;;;;;5050537;28;20059;-77
2020/12/08 09:22:11;;;;;;;13.88;10.10;;;6.30;82.70;;;;;;5036154;28;20029;-78
2020/12/08 09:24:37;;;;;;;13.90;8.80;;;6.40;82.60;;;;;;5051612;28;20052;-78
2020/12/08 09:27:04;;;;;;;14.88;9.77;;;6.30;82.20;;;;;;5069348;28;20029;-79
2020/12/08 09:29:30;;;;;;;14.25;9.68;;;6.30;82.50;;;;;;5037346;28;20071;-79
2020/12/08 09:31:57;;;;;;;13.38;9.18;;;6.30;82.80;;;;;;5053636;28;20025;-78
2020/12/08 09:34:23;;;;;;;14.75;10.10;;;6.30;82.50;;;;;;5034169;28;20016;-78
2020/12/08 09:36:54;;;;;;;14.90;9.48;;;6.30;82.50;;;;;;5034892;28;20021;-79
2020/12/08 09:39:20;;;;;;;14.57;8.65;;;6.30;82.30;;;;;;5052977;28;20026;-79
2020/12/08 09:41:46;;;;;;;13.23;9.15;;;6.30;82.40;;;;;;5056627;28;20107;-79
2020/12/08 09:44:12;;;;;;;12.70;9.10;;;6.30;82.40;;;;;;5052490;28;20052;-78
2020/12/08 09:46:38;;;;;;;15.77;9.35;;;6.30;82.40;;;;;;5052534;28;20047;-79
2020/12/08 09:49:04;;;;;;;13.02;9.10;;;6.30;82.60;;;;;;5065197;28;20024;-78
2020/12/08 09:51:31;;;;;;;14.32;9.60;;;6.30;82.20;;;;;;5041038;28;20024;-79
2020/12/08 09:53:57;;;;;;;14.85;9.57;;;6.40;82.50;;;;;;5051504;28;20043;-78
2020/12/08 09:56:23;;;;;;;15.65;10.38;;;6.40;82.50;;;;;;5047238;28;20019;-79
2020/12/08 09:58:49;;;;;;;14.10;10.00;;;6.40;82.50;;;;;;5073323;28;20036;-78
2020/12/08 10:01:15;;;;;;;15.70;10.80;;;6.40;82.30;;;;;;5068012;28;20024;-79
2020/12/08 10:03:41;;;;;;;15.80;10.35;;;6.40;82.30;;;;;;5051807;28;20075;-79
2020/12/08 10:06:07;;;;;;;13.57;9.73;;;6.30;82.50;;;;;;5050647;28;20423;-79
2020/12/08 10:08:33;;;;;;;15.43;10.40;;;6.40;82.00;;;;;;5052778;28;20019;-78
2020/12/08 10:10:59;;;;;;;14.68;10.02;;;6.30;82.20;;;;;;5051366;28;20031;-79
2020/12/08 10:13:24;;;;;;;23.25;12.35;;;6.30;82.20;;;;;;5041496;28;20147;-79
2020/12/08 10:15:50;;;;;;;13.88;9.57;;;6.40;85.70;;;;;;5078298;28;20043;-78
2020/12/08 10:18:16;;;;;;;13.98;9.43;;;6.50;82.40;;;;;;5047645;28;20032;-78
2020/12/08 10:20:41;;;;;;;19.95;11.35;;;6.50;82.10;;;;;;5047607;28;20037;-78
2020/12/08 10:23:07;;;;;;;15.07;10.60;;;6.50;84.60;;;;;;5039342;28;20029;-77
2020/12/08 10:25:33;;;;;;;13.05;9.38;;;6.60;82.70;;;;;;5056171;28;20120;-79
2020/12/08 10:28:00;;;;;;;13.77;9.38;;;6.60;82.00;;;;;;5035521;28;20054;-78
2020/12/08 10:30:26;;;;;;;16.23;10.95;;;6.60;82.00;;;;;;5075650;28;20023;-78
2020/12/08 10:32:52;;;;;;;15.77;10.25;;;6.60;82.10;;;;;;5044576;28;20024;-79
2020/12/08 10:35:17;;;;;;;17.13;10.73;;;6.60;82.30;;;;;;5043467;28;20404;-78
2020/12/08 10:37:43;;;;;;;15.30;10.52;;;6.50;82.10;;;;;;5057087;28;20492;-78
2020/12/08 10:40:09;;;;;;;15.00;10.27;;;6.50;82.40;;;;;;5057544;28;20025;-78
2020/12/08 10:42:34;;;;;;;17.70;11.35;;;6.50;82.40;;;;;;5041280;28;20674;-78
2020/12/08 10:45:00;;;;;;;20.05;10.65;;;6.50;82.20;;;;;;5058105;28;20024;-78
2020/12/08 10:47:26;;;;;;;17.27;10.88;;;6.50;84.00;;;;;;5056783;28;20060;-77
2020/12/08 10:49:54;;;;;;;17.45;10.65;;;6.70;85.10;;;;;;5073774;28;20403;-78
2020/12/08 10:52:21;;;;;;;15.82;10.65;;;6.80;82.20;;;;;;5057025;28;20111;-79
2020/12/08 10:54:46;;;;;;;18.15;10.23;;;6.80;81.60;;;;;;5041050;28;20075;-78
2020/12/08 10:57:12;;;;;;;14.68;9.77;;;6.70;81.70;;;;;;5045046;28;20032;-79
2020/12/08 10:59:38;;;;;;;15.07;10.13;;;6.70;81.80;;;;;;5042807;28;20020;-78
2020/12/08 11:02:04;;;;;;;19.77;11.15;;;6.60;82.10;;;;;;5069822;28;20028;-78
2020/12/08 11:04:30;;;;;;;18.80;11.45;;;6.60;84.60;;;;;;5071123;28;20024;-78
2020/12/08 11:06:57;;;;;;;17.83;11.13;;;6.70;82.70;;;;;;5062489;28;20505;-79
2020/12/08 11:09:23;;;;;;;16.05;10.63;;;6.80;82.40;;;;;;5061789;28;20027;-79
2020/12/08 11:11:49;;;;;;;18.25;11.65;;;6.70;82.40;;;;;;5038323;28;20087;-79
2020/12/08 11:14:14;;;;;;;16.63;11.43;;;6.70;82.10;;;;;;5040049;28;20025;-79
2020/12/08 11:16:40;;;;;;;16.45;11.32;;;6.60;82.10;;;;;;5051366;28;20469;-77
2020/12/08 11:19:06;;;;;;;17.40;12.15;;;6.60;82.10;;;;;;5045071;28;20047;-79
2020/12/08 11:21:32;;;;;;;16.08;11.25;;;6.70;83.70;;;;;;5059712;28;20043;-80
2020/12/08 11:23:58;;;;;;;16.45;11.90;;;6.70;82.40;;;;;;5060583;28;20024;-80
2020/12/08 11:26:25;;;;;;;15.25;11.30;;;6.70;82.40;;;;;;5039914;28;20517;-79
2020/12/08 11:28:51;;;;;;;19.63;11.32;;;6.70;82.20;;;;;;5037975;28;20069;-77
2020/12/08 11:31:17;;;;;;;16.52;10.95;;;6.60;82.40;;;;;;5058999;28;20067;-77
2020/12/08 11:33:45;;;;;;;17.77;11.85;;;6.60;82.70;;;;;;5072249;28;20043;-77
2020/12/08 11:36:11;;;;;;;18.52;12.38;;;6.60;82.70;;;;;;5061204;28;20121;-78
2020/12/08 11:38:36;;;;;;;18.38;11.82;;;6.60;82.30;;;;;;5043402;28;20094;-76
2020/12/08 11:41:02;;;;;;;18.00;12.60;;;6.60;82.20;;;;;;5054506;28;20032;-77
2020/12/08 11:43:28;;;;;;;18.17;11.60;;;6.60;82.10;;;;;;5055706;28;20075;-79
2020/12/08 11:45:54;;;;;;;17.08;11.85;;;6.60;82.30;;;;;;5058439;28;20032;-81
2020/12/08 11:48:22;;;;;;;16.55;11.70;;;6.60;82.10;;;;;;5039041;28;20021;-84
2020/12/08 11:50:49;;;;;;;17.65;12.52;;;6.60;82.40;;;;;;5039589;28;20032;-79
2020/12/08 11:53:15;;;;;;;15.85;11.75;;;6.60;82.70;;;;;;5039881;28;20021;-80
2020/12/08 11:55:41;;;;;;;18.48;11.90;;;6.60;82.70;;;;;;5056396;28;20099;-81
2020/12/08 11:58:07;;;;;;;18.33;12.40;;;6.60;82.40;;;;;;5036687;28;20028;-77
2020/12/08 12:00:33;;;;;;;34.22;16.23;;;6.60;82.50;;;;;;5037771;28;20032;-78
2020/12/08 12:02:59;;;;;;;23.25;14.50;;;6.80;90.10;;;;;;5051952;28;20051;-77
2020/12/08 12:05:25;;;;;;;18.52;13.63;;;7.20;88.80;;;;;;5056314;28;20031;-77
2020/12/08 12:07:51;;;;;;;17.50;13.10;;;7.40;81.70;;;;;;5051497;28;20017;-76
2020/12/08 12:10:17;;;;;;;18.63;12.50;;;7.30;81.20;;;;;;5073097;28;20039;-75
2020/12/08 12:12:42;;;;;;;18.98;12.60;;;7.30;81.00;;;;;;5039221;28;20087;-76
2020/12/08 12:15:08;;;;;;;21.35;13.32;;;7.20;81.20;;;;;;5057985;28;20395;-76
2020/12/08 12:17:34;;;;;;;20.98;13.77;;;7.10;81.70;;;;;;5037651;28;20030;-76
2020/12/08 12:20:00;;;;;;;17.02;12.57;;;7.10;81.50;;;;;;5057498;28;20071;-77
2020/12/08 12:22:26;;;;;;;24.02;14.63;;;7.10;81.70;;;;;;5057497;28;20029;-75
2020/12/08 12:24:54;;;;;;;19.75;13.95;;;7.00;81.60;;;;;;5057796;28;20025;-77
2020/12/08 12:27:20;;;;;;;17.52;12.77;;;7.00;82.00;;;;;;5038854;28;20044;-77
2020/12/08 12:29:46;;;;;;;19.52;13.93;;;6.90;81.90;;;;;;5061914;28;20017;-77
2020/12/08 12:32:11;;;;;;;20.95;13.88;;;6.90;82.10;;;;;;5054568;28;20143;-78
2020/12/08 12:34:37;;;;;;;21.88;15.23;;;6.90;82.20;;;;;;5043623;28;20039;-76
2020/12/08 12:37:04;;;;;;;22.20;15.43;;;7.00;82.10;;;;;;5038705;28;20032;-78
2020/12/08 12:39:29;;;;;;;21.70;14.43;;;7.00;82.00;;;;;;5040539;28;20466;-77
2020/12/08 12:41:55;;;;;;;25.85;15.77;;;6.90;82.20;;;;;;5057414;28;20107;-77
2020/12/08 12:44:21;;;;;;;22.20;16.13;;;7.00;82.10;;;;;;5036756;28;20392;-78
2020/12/08 12:46:51;;;;;;;22.83;15.88;;;7.00;81.90;;;;;;5051660;28;20095;-77